Page Municipal Airport
KPGA : now visible

Airfield :











YOU CAN JOIN US ON...

 
LOGIN :

Register | Disclaimer

   EN    FR    IT 

 









Legend :    VFR   Marginal VFR   IFR   Intensive IFR   Very Intensive IFR
Visi :
Ceiling :
>= 8 km
>= 3000ft
5 to 8 km
1000 to 3000 ft
1500m to 5 km
500 to 1000 ft
800 to 1500m
200 to 500 ft
< 800m
< 200 ft
Symbols :   Thunderstorms  Fog  Heavy snow  Heavy precipitations  Wind > 20 kt






- Airport Elevation : 4316 ft


KPGA - Page Municipal

CURRENT METAR :
  • 150853Z AUTO 01003KT 10SM CLR 24/13 A3008 RMK AO2 SLP113 T02390133 58002

EXPIRED METARs :
  • 150753Z AUTO 31006KT 10SM FEW110 24/13 A3008 RMK AO2 SLP114 T02390133
  • 150653Z AUTO 00000KT 10SM SCT110 24/13 A3009 RMK AO2 SLP119 T02440133 403330244

TAF KPGA
Valid from the 15 at 06:00 until the 16 at 06:00 UTC


150520Z 1506/1606 VRB04KT P6SM VCSH FEW110
TEMPO 1506/1510 VRB10G20KT 5SM -TSRA BKN050CB
FM151100 VRB04KT P6SM BKN070
PROB30 1601/1602 4SM TSRA OVC025CB
FM160200 33007KT P6SM BKN070
PROB30 1602/1606 4SM TSRA OVC025CB
KZDV FIR / North America



MET'MAP, your aeronautical weather chart ! - Copyright ORBIFLY December 2007 - Disclaimer

ORBIFLY MET'MAP TEAM :

Programming & Development : Alexandra Zaïnal
Original concept : Baudouin d'Aumeries
Technical & hardware support : Manuel Goepfert
Assistance : Marc-Olivier Méhu




SOURCES & CREDITS :

   NOAA       Earth
Advisory